createdAt,value
2016-09-17T00:00:25.912Z,0
2016-09-17T00:01:24.524Z,0
2016-09-17T00:02:24.415Z,0
2016-09-17T00:03:24.262Z,0
2016-09-17T00:04:24.213Z,0
2016-09-17T00:05:24.669Z,0
2016-09-17T00:06:23.627Z,0
2016-09-17T00:07:23.681Z,0
2016-09-17T00:08:24.187Z,0
2016-09-17T00:09:24.087Z,0
2016-09-17T00:10:24.128Z,0
2016-09-17T00:11:23.505Z,0
2016-09-17T00:12:23.980Z,0
2016-09-17T00:13:24.013Z,0
2016-09-17T00:14:23.542Z,0
2016-09-17T00:15:23.008Z,0
2016-09-17T00:16:23.693Z,0
2016-09-17T00:17:23.603Z,0
2016-09-17T00:18:23.495Z,0
2016-09-17T00:19:22.815Z,0
2016-09-17T00:20:23.378Z,0
2016-09-17T00:21:22.744Z,0
2016-09-17T00:22:23.510Z,0
2016-09-17T00:23:23.260Z,0
2016-09-17T00:24:23.216Z,0
2016-09-17T00:25:22.981Z,0
2016-09-17T00:26:23.336Z,0
2016-09-17T00:27:23.088Z,0
2016-09-17T00:28:23.024Z,0
2016-09-17T00:29:22.994Z,0
2016-09-17T00:30:22.621Z,0
2016-09-17T00:31:23.132Z,0
2016-09-17T00:32:22.563Z,0
2016-09-17T00:33:23.017Z,0
2016-09-17T00:34:22.947Z,0
2016-09-17T00:35:22.398Z,0
2016-09-17T00:36:22.344Z,0
2016-09-17T00:37:23.495Z,0
2016-09-17T00:38:24.993Z,0
2016-09-17T00:39:22.503Z,0
2016-09-17T00:40:22.158Z,0
2016-09-17T00:41:22.091Z,0
2016-09-17T00:42:22.057Z,0
2016-09-17T00:43:22.521Z,0
2016-09-17T00:44:22.517Z,0
2016-09-17T00:45:22.245Z,0
2016-09-17T00:46:22.400Z,0
2016-09-17T00:47:22.542Z,0
2016-09-17T00:48:22.101Z,0
2016-09-17T00:49:21.746Z,0
2016-09-17T00:50:21.998Z,0
2016-09-17T00:51:22.159Z,0
2016-09-17T00:52:21.921Z,0
2016-09-17T00:53:21.575Z,0
2016-09-17T00:54:22.026Z,0
2016-09-17T00:55:21.666Z,0
2016-09-17T00:56:21.944Z,0
2016-09-17T00:57:21.375Z,0
2016-09-17T00:58:21.322Z,0
2016-09-17T00:59:21.296Z,0
2016-09-17T01:00:21.541Z,0
2016-09-17T01:01:21.375Z,0
2016-09-17T01:02:21.462Z,0
2016-09-17T01:03:21.529Z,0
2016-09-17T01:04:21.101Z,0
2016-09-17T01:05:21.196Z,0
2016-09-17T01:06:20.958Z,0
2016-09-17T01:07:21.103Z,0
2016-09-17T01:08:21.286Z,0
2016-09-17T01:09:21.147Z,0
2016-09-17T01:10:21.091Z,0
2016-09-17T01:11:21.229Z,0
2016-09-17T01:12:20.675Z,0
2016-09-17T01:13:20.633Z,0
2016-09-17T01:14:20.646Z,0
2016-09-17T01:15:20.567Z,0
2016-09-17T01:16:20.881Z,0
2016-09-17T01:17:21.042Z,0
2016-09-17T01:18:20.433Z,0
2016-09-17T01:19:20.356Z,0
2016-09-17T01:20:19.753Z,0
2016-09-17T01:21:19.961Z,0
2016-09-17T01:22:20.281Z,0
2016-09-17T01:23:20.392Z,0
2016-09-17T01:24:20.118Z,0
2016-09-17T01:25:20.076Z,0
2016-09-17T01:26:20.580Z,0
2016-09-17T01:27:20.313Z,0
2016-09-17T01:28:20.280Z,0
2016-09-17T01:29:20.604Z,0
2016-09-17T01:30:20.153Z,0
2016-09-17T01:31:19.669Z,0
2016-09-17T01:32:19.968Z,0
2016-09-17T01:33:19.705Z,0
2016-09-17T01:34:19.650Z,0
2016-09-17T01:35:19.313Z,0
2016-09-17T01:36:19.564Z,0
2016-09-17T01:37:19.723Z,0
2016-09-17T01:38:19.482Z,0
2016-09-17T01:39:19.760Z,0
2016-09-17T01:40:19.641Z,0
2016-09-17T01:41:19.337Z,0
2016-09-17T01:42:19.492Z,0
2016-09-17T01:43:19.576Z,0
2016-09-17T01:44:19.515Z,0
2016-09-17T01:45:19.446Z,0
2016-09-17T01:46:19.409Z,0
2016-09-17T01:47:19.581Z,0
2016-09-17T01:48:19.202Z,0
2016-09-17T01:49:19.262Z,0
2016-09-17T01:50:18.934Z,0
2016-09-17T01:51:19.079Z,0
2016-09-17T01:52:19.155Z,0
2016-09-17T01:53:18.825Z,0
2016-09-17T01:54:18.423Z,0
2016-09-17T01:55:18.957Z,0
2016-09-17T01:56:18.644Z,0
2016-09-17T01:57:18.911Z,0
2016-09-17T01:58:19.255Z,0
2016-09-17T01:59:18.200Z,0
2016-09-17T02:00:18.166Z,0
2016-09-17T02:01:18.915Z,0
2016-09-17T02:02:18.574Z,0
2016-09-17T02:03:18.306Z,0
2016-09-17T02:04:18.862Z,0
2016-09-17T02:05:18.562Z,0
2016-09-17T02:06:18.240Z,0
2016-09-17T02:07:18.561Z,0
2016-09-17T02:08:18.301Z,0
2016-09-17T02:09:18.361Z,0
2016-09-17T02:10:18.498Z,0
2016-09-17T02:11:18.170Z,0
2016-09-17T02:12:18.177Z,0
2016-09-17T02:13:17.863Z,0
2016-09-17T02:14:17.825Z,0
2016-09-17T02:15:19.763Z,0
2016-09-17T02:16:17.730Z,0
2016-09-17T02:17:17.923Z,0
2016-09-17T02:18:17.902Z,0
2016-09-17T02:19:17.327Z,0
2016-09-17T02:20:17.548Z,0
2016-09-17T02:21:17.473Z,0
2016-09-17T02:22:18.153Z,0
2016-09-17T02:23:17.613Z,0
2016-09-17T02:24:17.661Z,0
2016-09-17T02:25:17.600Z,0
2016-09-17T02:26:17.273Z,0
2016-09-17T02:27:17.532Z,0
2016-09-17T02:28:17.502Z,0
2016-09-17T02:29:17.125Z,0
2016-09-17T02:30:16.760Z,0
2016-09-17T02:31:17.059Z,0
2016-09-17T02:32:17.188Z,0
2016-09-17T02:33:17.145Z,0
2016-09-17T02:34:16.881Z,0
2016-09-17T02:35:16.914Z,0
2016-09-17T02:36:16.849Z,0
2016-09-17T02:37:16.452Z,0
2016-09-17T02:38:17.010Z,0
2016-09-17T02:39:16.939Z,0
2016-09-17T02:40:16.635Z,0
2016-09-17T02:41:17.117Z,0
2016-09-17T02:42:16.207Z,0
2016-09-17T02:43:16.794Z,0
2016-09-17T02:44:16.163Z,0
2016-09-17T02:45:17.013Z,0
2016-09-17T02:46:17.853Z,0
2016-09-17T02:47:16.521Z,0
2016-09-17T02:48:17.455Z,0
2016-09-17T02:49:16.215Z,0
2016-09-17T02:50:16.462Z,0
2016-09-17T02:51:16.285Z,0
2016-09-17T02:52:16.365Z,0
2016-09-17T02:53:16.062Z,0
2016-09-17T02:54:16.293Z,0
2016-09-17T02:55:15.982Z,0
2016-09-17T02:56:15.871Z,0
2016-09-17T02:57:15.830Z,0
2016-09-17T02:58:15.787Z,0
2016-09-17T02:59:15.768Z,0
2016-09-17T03:00:15.975Z,0
2016-09-17T03:01:15.406Z,0
2016-09-17T03:02:15.602Z,0
2016-09-17T03:03:15.856Z,0
2016-09-17T03:04:15.812Z,0
2016-09-17T03:05:15.451Z,0
2016-09-17T03:06:15.771Z,0
2016-09-17T03:07:15.970Z,0
2016-09-17T03:08:15.319Z,0
2016-09-17T03:09:15.456Z,0
2016-09-17T03:10:15.534Z,0
2016-09-17T03:11:15.485Z,0
2016-09-17T03:12:14.810Z,0
2016-09-17T03:13:14.832Z,0
2016-09-17T03:14:15.032Z,0
2016-09-17T03:15:14.972Z,0
2016-09-17T03:16:14.650Z,0
2016-09-17T03:17:14.932Z,0
2016-09-17T03:18:14.886Z,0
2016-09-17T03:19:15.056Z,0
2016-09-17T03:20:14.183Z,0
2016-09-17T03:21:15.011Z,0
2016-09-17T03:22:14.674Z,0
2016-09-17T03:23:14.602Z,0
2016-09-17T03:24:16.096Z,0
2016-09-17T03:25:15.648Z,0
2016-09-17T03:26:14.465Z,0
2016-09-17T03:27:14.770Z,0
2016-09-17T03:28:14.413Z,0
2016-09-17T03:29:14.696Z,0
2016-09-17T03:30:14.505Z,0
2016-09-17T03:31:13.946Z,0
2016-09-17T03:32:14.405Z,0
2016-09-17T03:33:14.161Z,0
2016-09-17T03:34:14.108Z,0
2016-09-17T03:35:14.062Z,0
2016-09-17T03:36:14.313Z,0
2016-09-17T03:37:13.958Z,0
2016-09-17T03:38:14.252Z,0
2016-09-17T03:39:14.078Z,0
2016-09-17T03:40:13.827Z,0
2016-09-17T03:41:14.095Z,0
2016-09-17T03:42:14.067Z,0
2016-09-17T03:43:13.728Z,0
2016-09-17T03:44:14.366Z,0
2016-09-17T03:45:13.674Z,0
2016-09-17T03:46:13.248Z,0
2016-09-17T03:47:13.797Z,0
2016-09-17T03:48:13.559Z,0
2016-09-17T03:49:13.123Z,0
2016-09-17T03:50:13.762Z,0
2016-09-17T03:51:13.643Z,0
2016-09-17T03:52:13.259Z,0
2016-09-17T03:53:12.936Z,0
2016-09-17T03:54:12.888Z,0
2016-09-17T03:55:13.188Z,0
2016-09-17T03:56:13.394Z,0
2016-09-17T03:57:13.359Z,0
2016-09-17T03:58:13.301Z,0
2016-09-17T03:59:13.243Z,0
2016-09-17T04:00:12.888Z,0
2016-09-17T04:01:12.898Z,0
2016-09-17T04:02:13.143Z,0
2016-09-17T04:03:12.769Z,0
2016-09-17T04:04:12.727Z,0
2016-09-17T04:05:12.706Z,0
2016-09-17T04:06:12.835Z,0
2016-09-17T04:07:13.125Z,0
2016-09-17T04:08:12.793Z,0
2016-09-17T04:09:12.812Z,0
2016-09-17T04:10:12.753Z,0
2016-09-17T04:11:12.376Z,0
2016-09-17T04:12:12.342Z,0
2016-09-17T04:13:12.636Z,0
2016-09-17T04:14:11.937Z,0
2016-09-17T04:15:12.005Z,0
2016-09-17T04:16:12.075Z,0
2016-09-17T04:17:11.513Z,0
2016-09-17T04:18:13.419Z,0
2016-09-17T04:19:12.211Z,0
2016-09-17T04:20:11.991Z,0
2016-09-17T04:21:11.955Z,0
2016-09-17T04:22:11.890Z,0
2016-09-17T04:23:12.143Z,0
2016-09-17T04:24:11.809Z,0
2016-09-17T04:25:11.841Z,0
2016-09-17T04:26:15.368Z,0
2016-09-17T04:27:12.454Z,0
2016-09-17T04:28:11.602Z,0
2016-09-17T04:29:11.531Z,0
2016-09-17T04:30:11.839Z,0
2016-09-17T04:31:11.476Z,0
2016-09-17T04:32:11.207Z,0
2016-09-17T04:33:11.678Z,0
2016-09-17T04:34:11.347Z,0
2016-09-17T04:35:11.791Z,0
2016-09-17T04:36:11.758Z,0
2016-09-17T04:37:11.690Z,0
2016-09-17T04:38:11.123Z,0
2016-09-17T04:39:10.985Z,0
2016-09-17T04:40:11.369Z,0
2016-09-17T04:41:11.508Z,0
2016-09-17T04:42:11.020Z,0
2016-09-17T04:43:10.907Z,0
2016-09-17T04:44:11.086Z,0
2016-09-17T04:45:11.340Z,0
2016-09-17T04:46:10.992Z,0
2016-09-17T04:47:11.028Z,0
2016-09-17T04:48:10.701Z,0
2016-09-17T04:49:10.933Z,0
2016-09-17T04:50:10.269Z,0
2016-09-17T04:51:10.832Z,0
2016-09-17T04:52:10.177Z,0
2016-09-17T04:53:10.627Z,0
2016-09-17T04:54:10.594Z,0
2016-09-17T04:55:10.847Z,0
2016-09-17T04:56:10.809Z,0
2016-09-17T04:57:09.951Z,0
2016-09-17T04:58:10.205Z,0
2016-09-17T04:59:10.379Z,0
2016-09-17T05:00:09.737Z,0
2016-09-17T05:01:10.073Z,0
2016-09-17T05:02:10.342Z,0
2016-09-17T05:03:10.179Z,0
2016-09-17T05:04:10.251Z,0
2016-09-17T05:05:09.751Z,0
2016-09-17T05:06:29.020Z,0
2016-09-17T05:07:12.047Z,0
2016-09-17T05:08:09.754Z,0
2016-09-17T05:09:09.915Z,0
2016-09-17T05:10:10.372Z,0
2016-09-17T05:11:09.587Z,0
2016-09-17T05:12:09.565Z,0
2016-09-17T05:13:11.026Z,0
2016-09-17T05:14:09.769Z,0
2016-09-17T05:15:09.785Z,0
2016-09-17T05:16:09.362Z,0
2016-09-17T05:17:09.740Z,0
2016-09-17T05:18:09.606Z,0
2016-09-17T05:19:09.540Z,0
2016-09-17T05:20:09.438Z,0
2016-09-17T05:21:09.498Z,0
2016-09-17T05:22:10.021Z,0
2016-09-17T05:23:09.573Z,0
2016-09-17T05:24:09.504Z,0
2016-09-17T05:25:09.474Z,0
2016-09-17T05:26:09.097Z,0
2016-09-17T05:27:08.909Z,0
2016-09-17T05:28:08.713Z,0
2016-09-17T05:29:09.316Z,0
2016-09-17T05:30:09.055Z,0
2016-09-17T05:31:08.980Z,0
2016-09-17T05:32:08.877Z,0
2016-09-17T05:33:08.892Z,5
2016-09-17T05:34:08.734Z,5
2016-09-17T05:35:08.375Z,5
2016-09-17T05:36:08.628Z,5
2016-09-17T05:37:08.742Z,5
2016-09-17T05:38:08.346Z,5
2016-09-17T05:39:08.521Z,5
2016-09-17T05:40:08.150Z,5
2016-09-17T05:41:08.222Z,5
2016-09-17T05:42:08.446Z,5
2016-09-17T05:43:08.108Z,5
2016-09-17T05:44:08.381Z,5
2016-09-17T05:45:11.694Z,5
2016-09-17T05:46:08.188Z,5
2016-09-17T05:47:08.233Z,5
2016-09-17T05:48:08.382Z,10
2016-09-17T05:49:24.868Z,10
2016-09-17T05:50:14.163Z,10
2016-09-17T05:51:08.222Z,10
2016-09-17T05:52:07.391Z,10
2016-09-17T05:53:07.369Z,10
2016-09-17T05:54:07.785Z,10
2016-09-17T05:55:08.053Z,10
2016-09-17T05:56:07.517Z,10
2016-09-17T05:57:07.147Z,10
2016-09-17T05:58:06.863Z,15
2016-09-17T05:59:07.650Z,15
2016-09-17T06:00:07.002Z,15
2016-09-17T06:01:06.979Z,15
2016-09-17T06:02:07.220Z,15
2016-09-17T06:03:07.604Z,15
2016-09-17T06:04:07.145Z,15
2016-09-17T06:05:07.168Z,15
2016-09-17T06:06:13.796Z,15
2016-09-17T06:07:08.418Z,15
2016-09-17T06:08:07.236Z,15
2016-09-17T06:09:07.405Z,15
2016-09-17T06:10:07.447Z,15
2016-09-17T06:11:06.808Z,15
2016-09-17T06:12:07.270Z,15
2016-09-17T06:13:06.920Z,15
2016-09-17T06:14:07.248Z,15
2016-09-17T06:15:07.518Z,15
2016-09-17T06:16:06.764Z,15
2016-09-17T06:17:08.045Z,20
2016-09-17T06:18:06.803Z,20
2016-09-17T06:19:07.046Z,20
2016-09-17T06:20:06.709Z,20
2016-09-17T06:21:06.226Z,20
2016-09-17T06:22:07.009Z,20
2016-09-17T06:23:06.555Z,20
2016-09-17T06:24:06.165Z,20
2016-09-17T06:25:06.671Z,20
2016-09-17T06:26:05.799Z,20
2016-09-17T06:27:06.578Z,20
2016-09-17T06:28:06.314Z,20
2016-09-17T06:29:06.481Z,20
2016-09-17T06:30:06.630Z,20
2016-09-17T06:31:05.565Z,20
2016-09-17T06:32:05.838Z,20
2016-09-17T06:33:06.291Z,20
2016-09-17T06:34:05.745Z,20
2016-09-17T06:35:05.605Z,20
2016-09-17T06:36:06.393Z,25
2016-09-17T06:37:05.791Z,25
2016-09-17T06:38:05.962Z,25
2016-09-17T06:39:06.019Z,25
2016-09-17T06:40:06.168Z,20
2016-09-17T06:41:06.190Z,20
2016-09-17T06:42:05.387Z,20
2016-09-17T06:43:05.007Z,20
2016-09-17T06:44:05.267Z,25
2016-09-17T06:45:05.233Z,25
2016-09-17T06:46:09.453Z,20
2016-09-17T06:47:05.047Z,20
2016-09-17T06:48:05.615Z,20
2016-09-17T06:49:05.569Z,20
2016-09-17T06:50:05.309Z,20
2016-09-17T06:51:04.964Z,20
2016-09-17T06:52:05.107Z,20
2016-09-17T06:53:05.362Z,20
2016-09-17T06:54:04.707Z,20
2016-09-17T06:55:05.300Z,25
2016-09-17T06:56:05.451Z,25
2016-09-17T06:57:05.221Z,25
2016-09-17T06:58:05.288Z,25
2016-09-17T06:59:04.557Z,25
2016-09-17T07:00:05.233Z,30
2016-09-17T07:01:05.196Z,30
2016-09-17T07:02:04.424Z,35
2016-09-17T07:03:05.134Z,45
2016-09-17T07:04:04.664Z,45
2016-09-17T07:05:04.512Z,50
2016-09-17T07:06:08.568Z,50
2016-09-17T07:07:03.952Z,50
2016-09-17T07:08:04.487Z,50
2016-09-17T07:09:04.686Z,50
2016-09-17T07:10:04.095Z,50
2016-09-17T07:11:04.518Z,50
2016-09-17T07:12:03.961Z,55
2016-09-17T07:13:04.223Z,55
2016-09-17T07:14:03.901Z,55
2016-09-17T07:15:04.150Z,50
2016-09-17T07:16:03.839Z,50
2016-09-17T07:17:03.442Z,50
2016-09-17T07:18:04.410Z,50
2016-09-17T07:19:04.178Z,50
2016-09-17T07:20:03.925Z,50
2016-09-17T07:21:03.454Z,50
2016-09-17T07:22:03.547Z,50
2016-09-17T07:23:03.771Z,55
2016-09-17T07:24:03.433Z,55
2016-09-17T07:25:03.697Z,55
2016-09-17T07:26:03.858Z,55
2016-09-17T07:27:03.783Z,55
2016-09-17T07:28:03.842Z,60
2016-09-17T07:29:03.174Z,60
2016-09-17T07:30:03.332Z,60
2016-09-17T07:31:03.388Z,65
2016-09-17T07:32:03.572Z,65
2016-09-17T07:33:02.732Z,55
2016-09-17T07:34:03.266Z,65
2016-09-17T07:35:03.642Z,70
2016-09-17T07:36:02.878Z,65
2016-09-17T07:37:02.815Z,65
2016-09-17T07:38:03.584Z,55
2016-09-17T07:39:03.326Z,70
2016-09-17T07:40:02.400Z,70
2016-09-17T07:41:02.828Z,70
2016-09-17T07:42:02.899Z,65
2016-09-17T07:43:02.879Z,65
2016-09-17T07:44:02.508Z,65
2016-09-17T07:45:02.769Z,70
2016-09-17T07:46:02.717Z,70
2016-09-17T07:47:02.654Z,70
2016-09-17T07:48:02.304Z,70
2016-09-17T07:49:02.559Z,70
2016-09-17T07:50:02.522Z,70
2016-09-17T07:51:02.082Z,75
2016-09-17T07:52:02.451Z,70
2016-09-17T07:53:02.640Z,75
2016-09-17T07:54:02.528Z,80
2016-09-17T07:55:01.997Z,80
2016-09-17T07:56:02.253Z,80
2016-09-17T07:57:02.234Z,85
2016-09-17T07:58:01.753Z,80
2016-09-17T07:59:01.784Z,80
2016-09-17T08:00:01.752Z,80
2016-09-17T08:01:01.910Z,80
2016-09-17T08:02:01.966Z,85
2016-09-17T08:03:01.617Z,85
2016-09-17T08:04:01.882Z,85
2016-09-17T08:05:02.104Z,90
2016-09-17T08:06:01.872Z,95
2016-09-17T08:07:01.729Z,100
2016-09-17T08:08:01.793Z,95
2016-09-17T08:09:01.849Z,95
2016-09-17T08:10:01.480Z,95
2016-09-17T08:11:01.546Z,95
2016-09-17T08:12:01.533Z,105
2016-09-17T08:13:01.667Z,100
2016-09-17T08:14:01.616Z,100
2016-09-17T08:15:01.558Z,105
2016-09-17T08:16:02.055Z,105
2016-09-17T08:17:01.505Z,105
2016-09-17T08:18:01.239Z,105
2016-09-17T08:19:01.201Z,85
2016-09-17T08:20:01.217Z,70
2016-09-17T08:21:00.785Z,70
2016-09-17T08:22:00.953Z,70
2016-09-17T08:23:00.817Z,90
2016-09-17T08:24:01.086Z,95
2016-09-17T08:25:00.827Z,70
2016-09-17T08:26:01.287Z,85
2016-09-17T08:27:00.550Z,85
2016-09-17T08:28:00.793Z,105
2016-09-17T08:29:00.428Z,105
2016-09-17T08:30:00.404Z,105
2016-09-17T08:31:00.648Z,110
2016-09-17T08:32:01.216Z,110
2016-09-17T08:33:00.692Z,110
2016-09-17T08:34:00.198Z,105
2016-09-17T08:35:00.156Z,85
2016-09-17T08:36:00.650Z,95
2016-09-17T08:37:00.396Z,85
2016-09-17T08:38:00.328Z,105
2016-09-17T08:39:00.188Z,85
2016-09-17T08:40:00.716Z,90
2016-09-17T08:41:00.713Z,110
2016-09-17T08:42:00.223Z,105
2016-09-17T08:43:00.296Z,100
2016-09-17T08:44:00.158Z,95
2016-09-17T08:45:00.222Z,95
2016-09-17T08:46:00.032Z,95
2016-09-17T08:47:03.690Z,105
2016-09-17T08:48:01.181Z,100
2016-09-17T08:49:00.931Z,100
2016-09-17T08:49:59.994Z,100
2016-09-17T08:51:00.028Z,80
2016-09-17T08:51:58.793Z,70
2016-09-17T08:52:59.351Z,70
2016-09-17T08:53:59.397Z,85
2016-09-17T08:54:59.550Z,90
2016-09-17T08:55:59.228Z,95
2016-09-17T08:56:59.817Z,85
2016-09-17T08:57:59.117Z,70
2016-09-17T08:58:59.607Z,100
2016-09-17T08:59:59.137Z,115
2016-09-17T09:00:59.493Z,110
2016-09-17T09:01:58.827Z,65
2016-09-17T09:03:00.045Z,75
2016-09-17T09:03:59.240Z,115
2016-09-17T09:04:59.100Z,115
2016-09-17T09:05:58.620Z,110
2016-09-17T09:06:59.437Z,115
2016-09-17T09:07:58.978Z,110
2016-09-17T09:08:58.618Z,110
2016-09-17T09:09:58.843Z,110
2016-09-17T09:10:59.027Z,110
2016-09-17T09:11:58.576Z,115
2016-09-17T09:13:03.060Z,110
2016-09-17T09:13:58.891Z,110
2016-09-17T09:14:58.749Z,110
2016-09-17T09:15:58.721Z,75
2016-09-17T09:16:58.505Z,110
2016-09-17T09:17:59.520Z,110
2016-09-17T09:18:58.892Z,115
2016-09-17T09:19:58.890Z,110
2016-09-17T09:20:58.613Z,115
2016-09-17T09:21:57.740Z,115
2016-09-17T09:22:58.612Z,115
2016-09-17T09:23:57.856Z,105
2016-09-17T09:24:57.892Z,90
2016-09-17T09:25:57.874Z,80
2016-09-17T09:26:58.358Z,105
2016-09-17T09:27:57.739Z,90
2016-09-17T09:28:57.418Z,110
2016-09-17T09:29:58.169Z,110
2016-09-17T09:30:58.150Z,95
2016-09-17T09:31:57.378Z,80
2016-09-17T09:32:58.117Z,85
2016-09-17T09:33:57.802Z,70
2016-09-17T09:34:57.659Z,80
2016-09-17T09:35:57.617Z,70
2016-09-17T09:36:57.893Z,75
2016-09-17T09:37:57.229Z,70
2016-09-17T09:38:56.951Z,70
2016-09-17T09:39:57.237Z,65
2016-09-17T09:40:57.749Z,60
2016-09-17T09:41:56.835Z,60
2016-09-17T09:42:57.595Z,60
2016-09-17T09:43:57.045Z,60
2016-09-17T09:44:56.683Z,60
2016-09-17T09:45:57.271Z,60
2016-09-17T09:46:56.941Z,65
2016-09-17T09:47:57.073Z,70
2016-09-17T09:48:57.220Z,70
2016-09-17T09:49:56.776Z,70
2016-09-17T09:50:57.047Z,75
2016-09-17T09:51:57.021Z,75
2016-09-17T09:52:57.165Z,75
2016-09-17T09:53:57.217Z,80
2016-09-17T09:54:56.848Z,80
2016-09-17T09:55:56.819Z,75
2016-09-17T09:56:56.459Z,80
2016-09-17T09:57:56.950Z,85
2016-09-17T09:58:56.874Z,95
2016-09-17T09:59:56.860Z,105
2016-09-17T10:00:56.558Z,100
2016-09-17T10:01:55.628Z,105
2016-09-17T10:02:56.077Z,105
2016-09-17T10:03:56.852Z,105
2016-09-17T10:04:55.811Z,105
2016-09-17T10:05:56.198Z,110
2016-09-17T10:06:56.332Z,120
2016-09-17T10:07:56.576Z,120
2016-09-17T10:08:56.136Z,115
2016-09-17T10:09:56.193Z,110
2016-09-17T10:10:56.339Z,110
2016-09-17T10:11:56.307Z,110
2016-09-17T10:12:56.288Z,115
2016-09-17T10:13:55.764Z,110
2016-09-17T10:14:55.969Z,110
2016-09-17T10:15:55.923Z,95
2016-09-17T10:16:55.916Z,115
2016-09-17T10:17:56.066Z,115
2016-09-17T10:18:55.700Z,115
2016-09-17T10:19:56.356Z,110
2016-09-17T10:20:55.779Z,110
2016-09-17T10:21:55.555Z,115
2016-09-17T10:22:55.606Z,100
2016-09-17T10:23:55.287Z,105
2016-09-17T10:24:55.946Z,85
2016-09-17T10:25:55.354Z,105
2016-09-17T10:26:55.118Z,100
2016-09-17T10:27:55.540Z,90
2016-09-17T10:28:55.235Z,75
2016-09-17T10:29:55.875Z,75
2016-09-17T10:30:54.976Z,75
2016-09-17T10:31:55.222Z,75
2016-09-17T10:32:55.253Z,70
2016-09-17T10:33:55.014Z,70
2016-09-17T10:34:55.182Z,70
2016-09-17T10:35:54.922Z,70
2016-09-17T10:36:55.593Z,70
2016-09-17T10:37:54.535Z,70
2016-09-17T10:38:54.508Z,70
2016-09-17T10:39:54.568Z,70
2016-09-17T10:40:54.415Z,70
2016-09-17T10:41:54.475Z,75
2016-09-17T10:42:54.726Z,75
2016-09-17T10:43:54.090Z,80
2016-09-17T10:44:54.321Z,80
2016-09-17T10:45:54.274Z,90
2016-09-17T10:46:54.579Z,90
2016-09-17T10:47:54.464Z,100
2016-09-17T10:48:54.022Z,105
2016-09-17T10:49:54.106Z,80
2016-09-17T10:50:54.267Z,80
2016-09-17T10:51:54.113Z,75
2016-09-17T10:52:54.283Z,110
2016-09-17T10:53:53.923Z,110
2016-09-17T10:54:53.563Z,85
2016-09-17T10:55:53.520Z,90
2016-09-17T10:56:54.654Z,115
2016-09-17T10:57:54.128Z,120
2016-09-17T10:58:53.407Z,145
2016-09-17T10:59:53.423Z,140
2016-09-17T11:00:53.921Z,145
2016-09-17T11:01:53.572Z,145
2016-09-17T11:02:53.839Z,120
2016-09-17T11:03:53.469Z,110
2016-09-17T11:04:53.448Z,105
2016-09-17T11:05:53.379Z,110
2016-09-17T11:06:53.851Z,105
2016-09-17T11:07:52.982Z,100
2016-09-17T11:08:53.552Z,100
2016-09-17T11:09:53.521Z,100
2016-09-17T11:10:53.492Z,100
2016-09-17T11:11:53.349Z,105
2016-09-17T11:12:53.058Z,100
2016-09-17T11:13:53.249Z,100
2016-09-17T11:14:52.666Z,100
2016-09-17T11:15:52.945Z,95
2016-09-17T11:17:00.936Z,95
2016-09-17T11:18:00.674Z,95
2016-09-17T11:18:52.505Z,95
2016-09-17T11:19:53.073Z,95
2016-09-17T11:20:53.044Z,95
2016-09-17T11:21:52.664Z,95
2016-09-17T11:22:52.536Z,95
2016-09-17T11:23:54.349Z,95
2016-09-17T11:24:52.253Z,90
2016-09-17T11:25:52.723Z,90
2016-09-17T11:26:52.143Z,95
2016-09-17T11:27:51.987Z,130
2016-09-17T11:28:52.972Z,95
2016-09-17T11:29:52.311Z,90
2016-09-17T11:30:52.272Z,75
2016-09-17T11:31:52.447Z,70
2016-09-17T11:32:52.452Z,65
2016-09-17T11:33:52.135Z,60
2016-09-17T11:34:52.624Z,60
2016-09-17T11:35:52.087Z,55
2016-09-17T11:36:52.042Z,50
2016-09-17T11:37:52.042Z,50
2016-09-17T11:38:52.300Z,50
2016-09-17T11:39:52.076Z,55
2016-09-17T11:40:52.117Z,60
2016-09-17T11:41:54.909Z,65
2016-09-17T11:42:53.559Z,75
2016-09-17T11:43:51.623Z,80
2016-09-17T11:44:51.973Z,90
2016-09-17T11:45:52.149Z,95
2016-09-17T11:46:51.878Z,100
2016-09-17T11:47:51.528Z,115
2016-09-17T11:48:51.477Z,110
2016-09-17T11:49:51.766Z,125
2016-09-17T11:50:51.418Z,145
2016-09-17T11:51:51.277Z,140
2016-09-17T11:52:50.992Z,130
2016-09-17T11:53:51.583Z,130
2016-09-17T11:54:51.956Z,115
2016-09-17T11:55:51.073Z,105
2016-09-17T11:56:51.657Z,95
2016-09-17T11:57:51.203Z,95
2016-09-17T11:58:51.146Z,95
2016-09-17T11:59:51.436Z,95
2016-09-17T12:00:50.960Z,100
2016-09-17T12:01:50.703Z,100
2016-09-17T12:02:51.019Z,100
2016-09-17T12:03:51.386Z,95
2016-09-17T12:04:51.314Z,100
2016-09-17T12:05:50.960Z,110
2016-09-17T12:06:50.707Z,140
2016-09-17T12:07:50.565Z,135
2016-09-17T12:08:51.143Z,120
2016-09-17T12:09:50.494Z,115
2016-09-17T12:10:50.843Z,110
2016-09-17T12:11:50.728Z,110
2016-09-17T12:12:50.760Z,115
2016-09-17T12:13:50.347Z,120
2016-09-17T12:14:50.357Z,125
2016-09-17T12:15:50.344Z,125
2016-09-17T12:16:50.639Z,120
2016-09-17T12:17:50.253Z,110
2016-09-17T12:18:50.611Z,110
2016-09-17T12:19:50.460Z,125
2016-09-17T12:20:50.409Z,130
2016-09-17T12:21:50.269Z,130
2016-09-17T12:22:50.306Z,130
2016-09-17T12:23:49.683Z,130
2016-09-17T12:24:50.453Z,125
2016-09-17T12:25:49.876Z,120
2016-09-17T12:26:50.135Z,115
2016-09-17T12:27:49.697Z,105
2016-09-17T12:28:50.065Z,95
2016-09-17T12:29:50.226Z,90
2016-09-17T12:30:49.968Z,90
2016-09-17T12:31:49.622Z,85
2016-09-17T12:32:49.861Z,80
2016-09-17T12:33:49.173Z,75
2016-09-17T12:34:50.009Z,75
2016-09-17T12:35:49.453Z,75
2016-09-17T12:36:49.788Z,70
2016-09-17T12:37:49.062Z,65
2016-09-17T12:38:49.205Z,65
2016-09-17T12:39:49.850Z,65
2016-09-17T12:40:50.149Z,60
2016-09-17T12:41:49.489Z,60
2016-09-17T12:42:49.448Z,55
2016-09-17T12:43:49.094Z,45
2016-09-17T12:44:49.365Z,45
2016-09-17T12:45:49.091Z,45
2016-09-17T12:46:49.025Z,45
2016-09-17T12:47:48.925Z,45
2016-09-17T12:48:49.378Z,45
2016-09-17T12:49:49.048Z,40
2016-09-17T12:50:53.425Z,40
2016-09-17T12:51:49.146Z,45
2016-09-17T12:52:48.708Z,45
2016-09-17T12:53:51.697Z,45
2016-09-17T12:54:48.931Z,45
2016-09-17T12:55:48.889Z,45
2016-09-17T12:56:48.546Z,45
2016-09-17T12:57:49.581Z,45
2016-09-17T12:58:47.841Z,45
2016-09-17T12:59:48.672Z,45
2016-09-17T13:00:48.871Z,45
2016-09-17T13:01:48.609Z,50
2016-09-17T13:02:48.556Z,55
2016-09-17T13:03:48.491Z,60
2016-09-17T13:04:48.482Z,70
2016-09-17T13:05:48.133Z,70
2016-09-17T13:06:48.603Z,75
2016-09-17T13:07:48.286Z,75
2016-09-17T13:08:48.212Z,75
2016-09-17T13:09:48.481Z,80
2016-09-17T13:10:48.475Z,80
2016-09-17T13:11:48.185Z,80
2016-09-17T13:12:47.854Z,80
2016-09-17T13:13:48.297Z,80
2016-09-17T13:14:48.133Z,80
2016-09-17T13:15:47.675Z,80
2016-09-17T13:16:47.996Z,85
2016-09-17T13:17:47.416Z,85
2016-09-17T13:18:48.661Z,90
2016-09-17T13:19:48.085Z,90
2016-09-17T13:20:48.199Z,90
2016-09-17T13:21:48.165Z,80
2016-09-17T13:22:47.788Z,75
2016-09-17T13:23:47.356Z,70
2016-09-17T13:24:48.059Z,65
2016-09-17T13:25:47.351Z,70
2016-09-17T13:26:47.512Z,65
2016-09-17T13:27:47.651Z,60
2016-09-17T13:28:47.907Z,60
2016-09-17T13:29:46.774Z,55
2016-09-17T13:30:47.384Z,55
2016-09-17T13:31:46.713Z,55
2016-09-17T13:32:47.465Z,55
2016-09-17T13:33:47.412Z,55
2016-09-17T13:34:48.296Z,60
2016-09-17T13:35:47.582Z,55
2016-09-17T13:36:47.008Z,55
2016-09-17T13:37:47.598Z,55
2016-09-17T13:38:47.073Z,55
2016-09-17T13:39:47.676Z,50
2016-09-17T13:40:47.706Z,50
2016-09-17T13:41:46.576Z,50
2016-09-17T13:42:46.417Z,50
2016-09-17T13:43:53.085Z,50
2016-09-17T13:44:48.517Z,45
2016-09-17T13:45:46.701Z,45
2016-09-17T13:46:47.060Z,45
2016-09-17T13:47:46.306Z,45
2016-09-17T13:48:46.188Z,45
2016-09-17T13:49:46.704Z,45
2016-09-17T13:50:46.373Z,45
2016-09-17T13:51:46.432Z,45
2016-09-17T13:52:46.144Z,45
2016-09-17T13:53:46.246Z,45
2016-09-17T13:54:46.217Z,40
2016-09-17T13:55:46.499Z,40
2016-09-17T13:56:46.705Z,40
2016-09-17T13:57:46.669Z,40
2016-09-17T13:58:45.891Z,40
2016-09-17T13:59:46.037Z,40
2016-09-17T14:00:45.766Z,35
2016-09-17T14:01:46.065Z,35
2016-09-17T14:02:45.836Z,35
2016-09-17T14:03:45.621Z,35
2016-09-17T14:04:46.264Z,35
2016-09-17T14:05:45.942Z,35
2016-09-17T14:06:45.960Z,35
2016-09-17T14:07:45.728Z,35
2016-09-17T14:08:47.642Z,35
2016-09-17T14:09:45.566Z,35
2016-09-17T14:10:45.795Z,40
2016-09-17T14:11:45.234Z,40
2016-09-17T14:12:45.558Z,40
2016-09-17T14:13:45.634Z,40
2016-09-17T14:14:45.442Z,40
2016-09-17T14:15:45.039Z,40
2016-09-17T14:16:45.740Z,40
2016-09-17T14:17:44.667Z,40
2016-09-17T14:18:46.455Z,40
2016-09-17T14:19:45.086Z,40
2016-09-17T14:20:44.866Z,40
2016-09-17T14:21:44.495Z,40
2016-09-17T14:22:45.704Z,40